Time;durP1;ratioP1;P1;durP2;ratioP2;P2;SDS_P1;SDS_P2;PMS_P1;PMS_P2;Temp;Humidity;BMP_temperature;BMP_pressure;BME280_temperature;BME280_humidity;BME280_pressure;Samples;Min_cycle;Max_cycle;Signal;HPM_P1;HPM_P2
2022/01/15 00:00:39;;;;;;;34.97;23.33;;;4.50;99.90;;;;;;5056056;28;20043;-56
2022/01/15 00:03:23;;;;;;;34.88;23.80;;;4.50;99.90;;;;;;5055324;28;20040;-53
2022/01/15 00:06:07;;;;;;;35.25;23.98;;;4.60;99.90;;;;;;5054718;28;20067;-54
2022/01/15 00:08:51;;;;;;;35.80;25.17;;;4.50;99.90;;;;;;5055051;28;20040;-58
2022/01/15 00:11:36;;;;;;;35.63;23.67;;;4.50;99.90;;;;;;5052173;28;20086;-58
2022/01/15 00:14:33;;;;;;;35.47;23.90;;;4.50;99.90;;;;;;5051131;28;20094;-53
2022/01/15 00:17:33;;;;;;;31.83;22.85;;;4.50;99.90;;;;;;5053043;28;20040;-56
2022/01/15 00:20:19;;;;;;;33.00;23.30;;;4.60;99.90;;;;;;5053402;28;20511;-53
2022/01/15 00:23:04;;;;;;;33.13;23.08;;;4.50;99.90;;;;;;5044132;28;20029;-57
2022/01/15 00:25:50;;;;;;;34.80;22.50;;;4.60;99.90;;;;;;5048544;28;20095;-53
2022/01/15 00:28:35;;;;;;;31.02;22.35;;;4.60;99.90;;;;;;5056262;28;20044;-55
2022/01/15 00:31:19;;;;;;;36.92;24.23;;;4.70;99.90;;;;;;5053982;28;20044;-52
2022/01/15 00:34:04;;;;;;;33.42;23.10;;;4.70;99.90;;;;;;5060919;28;20035;-54
2022/01/15 00:36:48;;;;;;;36.03;23.95;;;4.70;99.90;;;;;;5042692;28;20573;-50
2022/01/15 00:39:32;;;;;;;34.13;23.33;;;4.70;99.90;;;;;;5056670;28;20118;-49
2022/01/15 00:42:16;;;;;;;35.47;23.08;;;4.50;99.90;;;;;;5050969;28;20058;-52
2022/01/15 00:45:01;;;;;;;30.85;22.42;;;4.70;99.90;;;;;;5051928;28;20123;-51
2022/01/15 00:47:45;;;;;;;;;;;4.70;99.90;;;;;;5053692;28;20055;-52
2022/01/15 00:50:30;;;;;;;30.42;21.10;;;4.70;99.90;;;;;;5051907;28;19935;-54
2022/01/15 00:53:14;;;;;;;33.20;22.95;;;4.70;99.90;;;;;;5051945;28;20035;-49
2022/01/15 00:55:58;;;;;;;32.15;21.80;;;4.60;99.90;;;;;;5052717;28;20048;-51
2022/01/15 00:58:42;;;;;;;34.17;22.67;;;4.70;99.90;;;;;;5051438;28;20083;-51
2022/01/15 01:01:26;;;;;;;32.03;22.25;;;4.70;99.90;;;;;;5053600;28;20032;-52
2022/01/15 01:04:11;;;;;;;30.92;21.40;;;4.70;99.90;;;;;;5052497;28;20056;-50
2022/01/15 01:06:55;;;;;;;33.53;23.20;;;4.60;99.90;;;;;;5058757;28;20401;-53
2022/01/15 01:22:12;;;;;;;37.28;24.15;;;4.40;99.90;;;;;;5053417;28;20060;-50
2022/01/15 01:24:36;;;;;;;38.30;25.05;;;4.40;99.90;;;;;;5052074;28;20059;-50
2022/01/15 01:27:27;;;;;;;36.53;23.95;;;4.30;99.90;;;;;;5052918;28;20078;-49
2022/01/15 01:30:21;;;;;;;37.70;25.05;;;4.30;99.90;;;;;;5050604;28;20039;-51
2022/01/15 01:33:27;;;;;;;36.67;23.95;;;4.20;99.90;;;;;;5050866;28;20032;-51
2022/01/15 01:36:18;;;;;;;36.67;24.10;;;4.20;99.90;;;;;;5050962;28;20088;-51
2022/01/15 01:39:09;;;;;;;36.92;25.63;;;4.20;99.90;;;;;;5050113;28;20404;-49
2022/01/15 01:45:11;;;;;;;38.90;25.10;;;4.10;99.90;;;;;;5052726;28;20075;-52
2022/01/15 01:47:55;;;;;;;39.90;26.23;;;4.10;99.90;;;;;;5081807;28;20051;-53
2022/01/15 01:50:39;;;;;;;44.90;25.40;;;4.20;99.90;;;;;;5056022;28;20083;-49
2022/01/15 01:53:23;;;;;;;39.42;25.15;;;4.30;99.90;;;;;;5061679;28;20443;-48
2022/01/15 01:56:07;;;;;;;36.60;23.92;;;4.40;99.90;;;;;;5053637;28;20114;-54
2022/01/15 01:58:51;;;;;;;36.22;24.50;;;4.40;99.90;;;;;;5051869;28;20036;-54
2022/01/15 02:01:36;;;;;;;39.20;25.50;;;4.40;99.90;;;;;;5048645;28;20036;-52
2022/01/15 02:04:20;;;;;;;36.17;23.60;;;4.50;99.90;;;;;;5057474;28;20032;-49
2022/01/15 02:07:04;;;;;;;35.13;23.08;;;4.50;99.90;;;;;;5057238;28;20051;-52
2022/01/15 02:09:48;;;;;;;33.53;22.90;;;4.40;99.90;;;;;;5057265;28;20128;-52
2022/01/15 02:12:32;;;;;;;35.45;23.42;;;4.50;99.90;;;;;;5054896;28;20119;-50
2022/01/15 02:15:19;;;;;;;38.33;23.75;;;4.40;99.90;;;;;;5056170;28;20086;-50
2022/01/15 02:18:04;;;;;;;35.95;23.40;;;4.30;99.90;;;;;;5057450;28;20044;-53
2022/01/15 02:23:33;;;;;;;37.92;25.00;;;4.10;99.90;;;;;;5043234;28;20033;-53
2022/01/15 02:26:25;;;;;;;39.95;24.95;;;4.10;99.90;;;;;;5056834;28;20098;-54
2022/01/15 02:29:12;;;;;;;39.03;24.73;;;4.20;99.90;;;;;;5055738;28;20045;-49
2022/01/15 02:31:56;;;;;;;37.92;24.00;;;4.20;99.90;;;;;;5048854;28;20083;-55
2022/01/15 02:34:40;;;;;;;37.17;25.42;;;4.20;99.90;;;;;;5047280;28;20163;-53
2022/01/15 02:37:24;;;;;;;37.75;24.73;;;4.10;99.90;;;;;;5055628;28;20044;-53
2022/01/15 02:40:13;;;;;;;39.28;25.27;;;4.00;99.90;;;;;;5056070;28;20097;-49
2022/01/15 02:43:00;;;;;;;39.03;25.20;;;3.90;99.90;;;;;;5054703;28;20082;-53
2022/01/15 02:45:54;;;;;;;39.45;24.70;;;4.00;99.90;;;;;;5055597;28;20115;-50
2022/01/15 02:48:38;;;;;;;40.38;24.80;;;3.80;99.90;;;;;;5055877;28;20044;-50
2022/01/15 02:51:25;;;;;;;42.72;26.17;;;3.80;99.90;;;;;;5055662;28;20078;-50
2022/01/15 02:54:09;;;;;;;38.63;25.25;;;3.80;99.90;;;;;;5055767;28;20036;-51
2022/01/15 02:56:54;;;;;;;41.13;24.90;;;3.80;99.90;;;;;;5055296;28;20032;-53
2022/01/15 02:59:40;;;;;;;37.45;24.40;;;3.80;99.90;;;;;;5055792;28;20095;-51
2022/01/15 03:02:31;;;;;;;40.10;24.50;;;3.90;99.90;;;;;;5054489;28;20075;-50
2022/01/15 03:05:15;;;;;;;37.53;23.92;;;3.80;99.90;;;;;;5056613;28;20028;-53
2022/01/15 03:08:02;;;;;;;44.83;25.65;;;3.90;99.90;;;;;;5055884;28;20055;-52
2022/01/15 03:10:46;;;;;;;37.03;24.73;;;3.90;99.90;;;;;;5056061;28;20032;-51
2022/01/15 03:13:31;;;;;;;39.33;25.55;;;3.80;99.90;;;;;;5055491;28;20126;-51
2022/01/15 03:16:20;;;;;;;41.70;25.10;;;3.80;99.90;;;;;;5055350;28;20044;-53
2022/01/15 03:19:05;;;;;;;43.30;25.00;;;3.70;99.90;;;;;;5055943;28;20036;-52
2022/01/15 03:21:49;;;;;;;40.45;24.55;;;3.80;99.90;;;;;;5038338;28;20055;-50
2022/01/15 03:24:33;;;;;;;36.60;23.45;;;3.90;99.90;;;;;;5056033;28;20424;-48
2022/01/15 03:27:21;;;;;;;38.05;25.13;;;4.00;99.90;;;;;;5055372;28;20067;-52
2022/01/15 03:30:08;;;;;;;37.67;22.83;;;4.00;99.90;;;;;;5056003;28;20055;-48
2022/01/15 03:32:52;;;;;;;38.47;24.15;;;3.90;99.90;;;;;;5055429;28;20048;-53
2022/01/15 03:35:37;;;;;;;38.67;24.67;;;3.80;99.90;;;;;;5054836;28;20044;-51
2022/01/15 03:38:21;;;;;;;36.38;23.80;;;3.80;99.90;;;;;;5055219;28;20396;-49
2022/01/15 03:41:05;;;;;;;38.97;23.92;;;3.60;99.90;;;;;;5054947;28;20029;-51
2022/01/15 03:43:49;;;;;;;38.85;24.45;;;3.60;99.90;;;;;;5055602;28;20437;-49
2022/01/15 03:46:34;;;;;;;40.30;25.93;;;3.60;99.90;;;;;;5055139;28;20099;-49
2022/01/15 03:49:18;;;;;;;38.72;24.42;;;3.60;99.90;;;;;;5055105;28;20099;-53
2022/01/15 03:52:07;;;;;;;40.00;24.73;;;3.50;99.90;;;;;;5039923;28;20040;-52
2022/01/15 03:54:51;;;;;;;36.90;24.15;;;3.50;99.90;;;;;;5055297;28;20048;-52
2022/01/15 03:57:37;;;;;;;42.92;24.60;;;3.60;99.90;;;;;;5054900;28;20511;-48
2022/01/15 04:00:24;;;;;;;34.80;23.63;;;3.70;99.90;;;;;;5055650;28;20618;-53
2022/01/15 04:03:08;;;;;;;37.90;25.00;;;3.60;99.90;;;;;;5054319;28;20155;-51
2022/01/15 04:05:52;;;;;;;37.88;24.50;;;3.60;99.90;;;;;;5055445;28;20111;-51
2022/01/15 04:08:36;;;;;;;41.47;24.80;;;3.40;99.90;;;;;;5055443;28;20051;-50
2022/01/15 04:11:20;;;;;;;36.47;23.95;;;3.40;99.90;;;;;;5055170;28;20121;-54
2022/01/15 04:14:06;;;;;;;36.40;22.97;;;3.50;99.90;;;;;;5053759;28;20475;-52
2022/01/15 04:16:50;;;;;;;40.08;24.83;;;3.50;99.90;;;;;;5055003;28;20048;-50
2022/01/15 04:19:36;;;;;;;39.22;24.10;;;3.50;99.90;;;;;;5054915;28;20040;-50
2022/01/15 04:22:20;;;;;;;34.92;23.63;;;3.50;99.90;;;;;;5054056;28;20052;-52
2022/01/15 04:25:04;;;;;;;39.35;24.52;;;3.40;99.90;;;;;;5054657;28;20040;-53
2022/01/15 04:27:49;;;;;;;37.30;24.48;;;3.40;99.90;;;;;;5054301;28;20044;-51
2022/01/15 04:30:33;;;;;;;38.10;24.20;;;3.40;99.90;;;;;;5053959;28;20112;-49
2022/01/15 04:33:17;;;;;;;38.88;24.13;;;3.40;99.90;;;;;;5034125;28;20044;-52
2022/01/15 04:36:03;;;;;;;36.45;24.48;;;3.50;99.90;;;;;;5039685;28;20424;-53
2022/01/15 04:38:47;;;;;;;36.50;24.23;;;3.50;99.90;;;;;;5034349;28;20036;-55
2022/01/15 04:41:31;;;;;;;38.70;24.63;;;3.50;99.90;;;;;;5042000;28;20039;-54
2022/01/15 04:44:15;;;;;;;41.15;24.50;;;3.50;99.90;;;;;;5053926;28;20282;-56
2022/01/15 04:47:00;;;;;;;39.88;25.35;;;3.50;99.90;;;;;;5054523;28;20031;-52
2022/01/15 04:49:44;;;;;;;38.10;23.90;;;3.50;99.90;;;;;;5053785;28;20048;-54
2022/01/15 04:52:30;;;;;;;40.58;23.08;;;3.50;99.90;;;;;;5053736;28;20179;-53
2022/01/15 04:55:14;;;;;;;35.10;24.70;;;3.50;99.90;;;;;;5053780;28;20121;-52
2022/01/15 04:57:59;;;;;;;35.65;23.48;;;3.60;99.90;;;;;;5052999;28;20063;-48
2022/01/15 05:00:43;;;;;;;38.78;23.83;;;3.60;99.90;;;;;;5053448;28;20184;-50
2022/01/15 05:03:27;;;;;;;31.60;21.25;;;3.50;99.90;;;;;;5053027;28;20416;-52
2022/01/15 05:06:11;;;;;;;36.67;22.17;;;3.50;99.90;;;;;;5052112;28;20524;-50
2022/01/15 05:09:04;;;;;;;37.72;23.73;;;3.50;99.90;;;;;;5053540;28;20098;-55
2022/01/15 05:12:11;;;;;;;41.50;25.92;;;3.50;99.90;;;;;;5052886;28;20039;-50
2022/01/15 05:14:55;;;;;;;36.28;22.73;;;3.50;99.90;;;;;;5054632;28;20055;-56
2022/01/15 05:17:40;;;;;;;36.83;24.10;;;3.50;99.90;;;;;;5052715;28;20059;-53
2022/01/15 05:20:25;;;;;;;41.25;24.02;;;3.50;99.90;;;;;;5053351;28;20044;-55
2022/01/15 05:23:09;;;;;;;37.63;23.13;;;3.50;99.90;;;;;;5052685;28;20047;-54
2022/01/15 05:25:53;;;;;;;32.40;21.53;;;3.50;99.90;;;;;;5053104;28;20578;-54
2022/01/15 05:28:37;;;;;;;35.58;22.88;;;3.50;99.90;;;;;;5052900;28;20116;-52
2022/01/15 05:31:21;;;;;;;34.47;22.05;;;3.60;99.90;;;;;;5053160;28;20036;-54
2022/01/15 05:34:05;;;;;;;33.50;22.27;;;3.60;99.90;;;;;;5053106;28;20039;-52
2022/01/15 05:36:49;;;;;;;32.47;21.25;;;3.60;99.90;;;;;;5054907;28;20082;-54
2022/01/15 05:39:33;;;;;;;33.13;23.38;;;3.70;99.90;;;;;;5055269;28;20048;-54
2022/01/15 05:42:17;;;;;;;30.90;21.58;;;3.70;99.90;;;;;;5055066;28;20079;-52
2022/01/15 05:45:01;;;;;;;32.78;23.50;;;3.70;99.90;;;;;;5054870;28;20098;-53
2022/01/15 05:47:45;;;;;;;33.92;22.35;;;3.70;99.90;;;;;;5053505;28;20052;-54
2022/01/15 05:50:29;;;;;;;34.22;22.55;;;3.70;99.90;;;;;;5054059;28;20044;-55
2022/01/15 05:53:14;;;;;;;32.43;22.33;;;3.80;99.90;;;;;;5051146;28;20036;-52
2022/01/15 05:55:58;;;;;;;30.35;21.52;;;3.80;99.90;;;;;;5046332;28;20107;-51
2022/01/15 05:58:42;;;;;;;32.75;21.40;;;3.80;99.90;;;;;;5052836;28;20558;-50
2022/01/15 06:01:26;;;;;;;30.33;21.15;;;3.80;99.90;;;;;;5053071;28;20117;-53
2022/01/15 06:04:10;;;;;;;33.03;22.20;;;3.90;99.90;;;;;;5052800;28;20054;-54
2022/01/15 06:06:54;;;;;;;35.03;21.23;;;3.80;99.90;;;;;;5033259;28;20049;-47
2022/01/15 06:09:38;;;;;;;30.25;19.90;;;3.90;99.90;;;;;;5034897;28;20729;-51
2022/01/15 06:12:29;;;;;;;30.23;20.60;;;3.90;99.90;;;;;;5052604;28;20079;-53
2022/01/15 06:15:14;;;;;;;28.42;19.50;;;3.90;99.90;;;;;;5053620;28;20041;-49
2022/01/15 06:17:58;;;;;;;27.27;20.00;;;3.90;99.90;;;;;;5047921;28;20115;-51
2022/01/15 06:20:42;;;;;;;30.02;19.05;;;3.90;99.90;;;;;;5041393;28;20150;-48
2022/01/15 06:23:26;;;;;;;31.83;20.45;;;3.90;99.90;;;;;;5052974;28;20067;-55
2022/01/15 06:26:10;;;;;;;32.58;20.70;;;3.90;99.90;;;;;;5051781;28;20404;-53
2022/01/15 06:28:54;;;;;;;30.47;19.67;;;3.90;99.90;;;;;;5050889;28;20116;-52
2022/01/15 06:31:38;;;;;;;34.50;23.65;;;3.90;99.90;;;;;;5049440;28;20064;-54
2022/01/15 06:34:22;;;;;;;34.40;22.25;;;3.90;99.90;;;;;;5052452;28;20099;-50
2022/01/15 06:37:07;;;;;;;31.67;21.42;;;3.90;99.90;;;;;;5052159;28;20126;-51
2022/01/15 06:39:51;;;;;;;32.47;22.73;;;3.90;99.90;;;;;;5055570;28;20036;-54
2022/01/15 06:42:36;;;;;;;32.40;22.30;;;3.90;99.90;;;;;;5047127;28;20072;-50
2022/01/15 06:45:20;;;;;;;30.90;21.10;;;3.90;99.90;;;;;;5055995;28;20124;-53
2022/01/15 06:48:04;;;;;;;30.02;21.08;;;3.90;99.90;;;;;;5055585;28;20404;-51
2022/01/15 06:50:49;;;;;;;31.40;20.83;;;3.90;99.90;;;;;;5055735;28;20412;-51
2022/01/15 06:53:32;;;;;;;31.38;21.77;;;3.90;99.90;;;;;;5054191;28;20047;-52
2022/01/15 06:56:17;;;;;;;29.65;21.33;;;3.90;99.90;;;;;;5056040;28;20052;-53
2022/01/15 06:59:01;;;;;;;37.87;24.07;;;3.90;99.90;;;;;;5055688;28;20084;-55
2022/01/15 07:01:45;;;;;;;32.17;22.70;;;3.90;99.90;;;;;;5055571;28;20040;-55
2022/01/15 07:04:29;;;;;;;32.03;21.45;;;3.90;99.90;;;;;;5055059;28;20451;-54
2022/01/15 07:07:13;;;;;;;36.63;21.63;;;4.00;99.90;;;;;;5052812;28;20147;-55
2022/01/15 07:09:58;;;;;;;32.85;21.33;;;4.00;99.90;;;;;;5055085;28;20140;-55
2022/01/15 07:12:42;;;;;;;31.65;21.17;;;4.00;99.90;;;;;;5054592;28;20048;-56
2022/01/15 07:15:26;;;;;;;31.15;19.67;;;4.00;99.90;;;;;;5054922;28;20132;-54
2022/01/15 07:18:10;;;;;;;31.48;22.02;;;4.00;99.90;;;;;;5054674;28;20128;-49
2022/01/15 07:20:54;;;;;;;32.28;21.75;;;3.90;99.90;;;;;;5053513;28;20094;-51
2022/01/15 07:23:38;;;;;;;34.43;23.13;;;3.90;99.90;;;;;;5054799;28;20032;-54
2022/01/15 07:26:22;;;;;;;34.70;23.27;;;3.80;99.90;;;;;;5054853;28;20126;-52
2022/01/15 07:29:14;;;;;;;33.30;22.30;;;3.80;99.90;;;;;;5055391;28;20040;-55
2022/01/15 07:31:58;;;;;;;39.80;25.48;;;3.70;99.90;;;;;;5047899;28;20048;-52
2022/01/15 07:34:43;;;;;;;36.58;22.63;;;3.70;99.90;;;;;;5035216;28;20608;-55
2022/01/15 07:37:27;;;;;;;35.00;22.58;;;3.60;99.90;;;;;;5034455;28;20133;-51
2022/01/15 07:40:12;;;;;;;34.55;22.80;;;3.70;99.90;;;;;;5036510;28;20040;-52
2022/01/15 07:42:56;;;;;;;32.60;21.60;;;3.70;99.90;;;;;;5042786;28;20076;-52
2022/01/15 07:45:40;;;;;;;35.30;22.58;;;3.70;99.90;;;;;;5040915;28;20036;-55
2022/01/15 07:48:27;;;;;;;44.80;28.88;;;3.70;99.90;;;;;;5054533;28;20090;-55
2022/01/15 07:51:12;;;;;;;36.13;24.38;;;3.70;99.90;;;;;;5053620;28;20044;-49
2022/01/15 07:53:56;;;;;;;31.45;21.05;;;3.80;99.90;;;;;;5054553;28;20040;-52
2022/01/15 07:56:40;;;;;;;34.65;22.23;;;3.70;99.90;;;;;;5054688;28;20087;-50
2022/01/15 07:59:25;;;;;;;36.17;23.43;;;3.70;99.90;;;;;;5054217;28;20024;-55
2022/01/15 08:02:09;;;;;;;35.20;22.65;;;3.80;99.90;;;;;;5046296;28;20028;-51
2022/01/15 08:04:53;;;;;;;37.03;23.55;;;3.70;99.90;;;;;;5054153;28;20027;-51
2022/01/15 08:07:42;;;;;;;38.28;23.42;;;3.70;99.90;;;;;;5054250;28;20106;-51
2022/01/15 08:10:26;;;;;;;39.92;24.13;;;3.70;99.90;;;;;;5053935;28;20040;-55
2022/01/15 08:13:11;;;;;;;51.97;32.65;;;3.80;99.90;;;;;;5053852;28;20105;-55
2022/01/15 08:15:55;;;;;;;43.45;26.77;;;3.80;99.90;;;;;;5053177;28;20091;-52
2022/01/15 08:18:39;;;;;;;36.03;24.40;;;3.90;99.90;;;;;;5046931;28;20645;-54
2022/01/15 08:21:23;;;;;;;40.80;24.53;;;3.90;99.90;;;;;;5054304;28;20136;-53
2022/01/15 08:24:09;;;;;;;38.35;24.75;;;4.00;99.90;;;;;;5034430;28;20037;-50
2022/01/15 08:26:57;;;;;;;37.28;24.17;;;4.00;99.90;;;;;;5049843;28;20055;-51
2022/01/15 08:29:41;;;;;;;38.25;24.33;;;4.10;99.90;;;;;;5054383;28;20511;-50
2022/01/15 08:32:26;;;;;;;34.55;22.23;;;4.10;99.90;;;;;;5052373;28;20047;-50
2022/01/15 08:35:11;;;;;;;34.03;23.38;;;4.20;99.90;;;;;;5053569;28;20040;-51
2022/01/15 08:37:57;;;;;;;;;;;4.30;99.90;;;;;;5055211;28;20052;-52
2022/01/15 08:40:42;;;;;;;38.15;22.45;;;4.30;99.90;;;;;;5056007;28;19966;-52
2022/01/15 08:43:26;;;;;;;36.50;23.55;;;4.30;99.90;;;;;;5056280;28;20044;-51
2022/01/15 08:46:11;;;;;;;41.88;23.65;;;4.30;99.90;;;;;;5054283;28;20036;-49
2022/01/15 08:48:55;;;;;;;;;;;4.40;99.90;;;;;;5055207;28;20036;-56
2022/01/15 08:51:40;;;;;;;36.85;23.00;;;4.30;99.90;;;;;;5053084;28;19915;-52
2022/01/15 08:54:24;;;;;;;34.90;22.53;;;4.40;99.90;;;;;;5052666;28;20055;-52
2022/01/15 08:57:08;;;;;;;44.92;28.42;;;4.40;99.90;;;;;;5036243;28;20040;-54
2022/01/15 08:59:52;;;;;;;46.20;29.60;;;4.50;99.90;;;;;;5052786;28;20082;-54
2022/01/15 09:02:36;;;;;;;43.42;27.33;;;4.40;99.90;;;;;;5051932;28;20094;-55
2022/01/15 09:05:22;;;;;;;40.88;23.75;;;4.50;99.90;;;;;;5036794;28;20045;-54
2022/01/15 09:08:06;;;;;;;;;;;4.60;99.90;;;;;;5051847;28;20443;-50
2022/01/15 09:10:53;;;;;;;45.90;25.42;;;4.60;99.90;;;;;;5053434;28;19959;-53
2022/01/15 09:13:40;;;;;;;41.28;24.95;;;4.50;99.90;;;;;;5052713;28;20076;-51
2022/01/15 09:16:25;;;;;;;38.90;24.10;;;4.50;99.90;;;;;;5037622;28;20095;-55
2022/01/15 09:19:09;;;;;;;40.13;22.52;;;4.60;99.90;;;;;;5053637;28;20047;-54
2022/01/15 09:21:53;;;;;;;;;;;4.60;99.90;;;;;;5052229;28;20032;-53
2022/01/15 09:24:38;;;;;;;44.72;26.20;;;4.60;99.90;;;;;;5051584;28;19973;-55
2022/01/15 09:30:26;;;;;;;37.20;22.65;;;4.60;99.90;;;;;;5052055;28;20040;-51
2022/01/15 09:33:11;;;;;;;;;;;4.60;99.90;;;;;;5050636;28;20083;-51
2022/01/15 09:35:55;;;;;;;75.70;43.25;;;4.70;99.90;;;;;;5051598;28;19915;-55
2022/01/15 09:38:39;;;;;;;46.47;27.70;;;4.70;99.90;;;;;;5050843;28;20118;-51
2022/01/15 09:41:24;;;;;;;41.83;26.02;;;4.70;99.90;;;;;;5050574;28;20031;-51
2022/01/15 09:44:11;;;;;;;;;;;4.80;99.90;;;;;;5051216;28;20032;-51
2022/01/15 09:46:56;;;;;;;45.53;27.48;;;4.80;99.90;;;;;;5052200;28;19920;-54
2022/01/15 09:49:41;;;;;;;;;;;4.70;99.90;;;;;;5052617;28;20082;-52
2022/01/15 09:52:27;;;;;;;43.88;25.08;;;4.60;99.90;;;;;;5050222;28;19920;-55
2022/01/15 09:55:13;;;;;;;52.55;29.83;;;4.70;99.90;;;;;;5052135;28;20550;-54
2022/01/15 09:57:57;;;;;;;44.03;26.88;;;4.70;99.90;;;;;;5049648;28;20040;-53
2022/01/15 10:00:41;;;;;;;38.75;24.38;;;4.90;99.90;;;;;;5053017;28;20587;-49
2022/01/15 10:03:25;;;;;;;55.35;29.75;;;4.90;99.90;;;;;;5050563;28;20044;-51
2022/01/15 10:06:09;;;;;;;42.00;24.77;;;4.90;99.90;;;;;;5050963;28;20511;-50
2022/01/15 10:09:01;;;;;;;37.60;23.07;;;4.90;99.90;;;;;;5051800;28;20340;-53
2022/01/15 10:11:51;;;;;;;38.45;22.90;;;5.00;99.90;;;;;;5051305;28;20036;-49
2022/01/15 10:14:39;;;;;;;41.17;23.17;;;5.00;99.90;;;;;;5055746;28;20047;-54
2022/01/15 10:17:28;;;;;;;39.88;23.92;;;5.00;99.90;;;;;;5053784;28;20139;-54
2022/01/15 10:20:15;;;;;;;37.97;24.70;;;5.10;99.90;;;;;;5048121;28;20039;-49
2022/01/15 10:23:01;;;;;;;37.60;23.73;;;5.10;99.90;;;;;;5046989;28;20033;-53
2022/01/15 10:26:05;;;;;;;37.75;24.27;;;5.20;99.90;;;;;;5055148;28;20071;-54
2022/01/15 10:28:52;;;;;;;36.50;23.58;;;5.20;99.90;;;;;;5054797;28;20036;-51
2022/01/15 10:31:43;;;;;;;39.35;23.55;;;5.20;99.90;;;;;;5055388;28;20091;-54
2022/01/15 10:34:32;;;;;;;39.60;23.90;;;5.30;99.90;;;;;;5054032;28;20060;-54
2022/01/15 10:37:19;;;;;;;40.28;24.60;;;5.30;99.90;;;;;;5052908;28;20117;-53
2022/01/15 10:40:07;;;;;;;32.13;21.98;;;5.30;99.90;;;;;;5049977;28;20032;-52
2022/01/15 10:42:56;;;;;;;43.80;23.17;;;5.40;99.90;;;;;;5046259;28;20087;-50
2022/01/15 10:45:49;;;;;;;36.25;20.88;;;5.40;99.90;;;;;;5055063;28;20079;-53
2022/01/15 10:48:37;;;;;;;34.05;20.67;;;5.40;99.90;;;;;;5054521;28;20090;-50
2022/01/15 10:51:22;;;;;;;35.47;21.45;;;5.40;99.90;;;;;;5052895;28;20607;-54
2022/01/15 10:54:06;;;;;;;34.38;22.42;;;5.40;99.90;;;;;;5055184;28;20098;-53
2022/01/15 10:57:05;;;;;;;31.17;20.57;;;5.40;99.90;;;;;;5055217;28;20075;-49
2022/01/15 11:00:17;;;;;;;36.63;21.67;;;5.40;99.90;;;;;;5054580;28;20079;-54
2022/01/15 11:03:04;;;;;;;36.25;23.83;;;5.40;99.90;;;;;;5054809;28;20507;-54
2022/01/15 11:05:51;;;;;;;40.80;24.13;;;5.50;99.90;;;;;;5054995;28;20040;-56
2022/01/15 11:08:36;;;;;;;38.83;22.90;;;5.50;99.90;;;;;;5053371;28;20576;-53
2022/01/15 11:11:23;;;;;;;38.90;24.42;;;5.40;99.90;;;;;;5053967;28;20452;-54
2022/01/15 11:14:09;;;;;;;45.50;25.20;;;5.40;99.90;;;;;;5053777;28;20507;-51
2022/01/15 11:16:55;;;;;;;43.90;27.05;;;5.70;99.90;;;;;;5052282;28;20051;-50
2022/01/15 11:19:43;;;;;;;42.75;24.75;;;5.70;99.90;;;;;;5051999;28;20044;-51
2022/01/15 11:22:27;;;;;;;41.25;26.00;;;5.60;99.90;;;;;;5053490;28;20032;-54
2022/01/15 11:25:13;;;;;;;34.67;22.98;;;5.60;99.90;;;;;;5052191;28;20032;-50
2022/01/15 11:27:57;;;;;;;39.83;24.88;;;5.60;99.90;;;;;;5053986;28;20102;-52
2022/01/15 11:30:43;;;;;;;41.42;23.40;;;5.60;99.90;;;;;;5054364;28;20040;-54
2022/01/15 11:33:33;;;;;;;39.95;23.25;;;5.60;99.90;;;;;;5053875;28;20411;-53
2022/01/15 11:36:27;;;;;;;38.03;22.75;;;5.50;99.90;;;;;;5054253;28;20440;-51
2022/01/15 11:39:28;;;;;;;32.72;21.55;;;5.60;99.90;;;;;;5044366;28;20395;-51
2022/01/15 11:42:35;;;;;;;29.80;19.70;;;5.60;99.90;;;;;;5047213;28;20033;-55
2022/01/15 11:45:35;;;;;;;33.33;20.70;;;5.70;99.90;;;;;;5034505;28;20024;-52
2022/01/15 11:48:27;;;;;;;39.15;22.65;;;5.70;99.90;;;;;;5033805;28;20032;-50
2022/01/15 11:51:14;;;;;;;37.47;24.00;;;5.80;99.90;;;;;;5034139;28;20053;-52
2022/01/15 11:54:00;;;;;;;35.22;22.63;;;5.80;99.90;;;;;;5033700;28;20436;-50
2022/01/15 11:56:46;;;;;;;44.47;28.25;;;5.80;99.90;;;;;;5034217;28;20053;-51
2022/01/15 11:59:51;;;;;;;44.05;29.23;;;5.90;99.90;;;;;;5033954;28;20084;-54
2022/01/15 12:02:43;;;;;;;38.28;25.40;;;5.90;99.90;;;;;;5033946;28;20036;-53
2022/01/15 12:05:30;;;;;;;39.33;24.02;;;5.80;99.90;;;;;;5034642;28;20048;-50
2022/01/15 12:08:14;;;;;;;35.40;20.35;;;5.80;99.90;;;;;;5034881;28;20404;-56
2022/01/15 12:11:01;;;;;;;32.90;20.17;;;5.80;99.90;;;;;;5034549;28;20515;-54
2022/01/15 12:13:48;;;;;;;31.80;19.63;;;5.80;99.90;;;;;;5038004;28;20044;-56
2022/01/15 12:16:36;;;;;;;31.50;20.67;;;5.90;99.90;;;;;;5052966;28;20044;-53
2022/01/15 12:19:35;;;;;;;33.70;18.90;;;6.10;99.90;;;;;;5053819;28;20083;-52
2022/01/15 12:22:43;;;;;;;32.97;19.20;;;6.30;99.90;;;;;;5052215;28;20083;-53
2022/01/15 12:25:27;;;;;;;36.05;19.42;;;6.40;99.90;;;;;;5054227;28;20048;-54
2022/01/15 12:28:14;;;;;;;34.03;20.45;;;6.40;99.90;;;;;;5053601;28;20031;-55
2022/01/15 12:30:58;;;;;;;28.33;17.00;;;6.40;99.90;;;;;;5053896;28;20124;-55
2022/01/15 12:33:43;;;;;;;32.28;17.02;;;6.40;99.90;;;;;;5053508;28;20087;-55
2022/01/15 12:36:27;;;;;;;49.92;30.55;;;6.50;99.90;;;;;;5052015;28;20090;-53
2022/01/15 12:39:11;;;;;;;28.73;18.27;;;6.40;99.90;;;;;;5053802;28;20036;-49
2022/01/15 12:41:56;;;;;;;35.67;21.52;;;6.50;99.90;;;;;;5033526;28;20072;-53
2022/01/15 12:44:54;;;;;;;43.17;23.65;;;6.50;99.90;;;;;;5036808;28;20504;-53
2022/01/15 12:47:45;;;;;;;35.72;19.13;;;6.50;99.90;;;;;;5053442;28;20079;-55
2022/01/15 12:50:41;;;;;;;32.85;18.27;;;6.50;99.90;;;;;;5053677;28;20078;-51
2022/01/15 12:53:35;;;;;;;32.78;19.25;;;6.50;99.90;;;;;;5052012;28;20432;-56
2022/01/15 12:56:20;;;;;;;32.15;20.38;;;6.50;99.90;;;;;;5044241;28;20064;-55
2022/01/15 12:59:04;;;;;;;38.42;22.60;;;6.50;99.90;;;;;;5053290;28;20027;-54
2022/01/15 13:01:49;;;;;;;36.88;23.35;;;6.60;99.90;;;;;;5052995;28;20527;-54
2022/01/15 13:04:33;;;;;;;;;;;6.30;99.90;;;;;;5053639;28;20040;-48
2022/01/15 13:07:18;;;;;;;38.90;24.13;;;6.30;99.90;;;;;;5053186;28;20004;-52
2022/01/15 13:10:02;;;;;;;37.78;24.40;;;6.20;99.90;;;;;;5053459;28;20396;-53
2022/01/15 13:12:46;;;;;;;35.58;22.75;;;6.20;99.90;;;;;;5045779;28;20443;-52
2022/01/15 13:15:31;;;;;;;34.55;22.10;;;6.20;99.90;;;;;;5049104;28;20055;-51
2022/01/15 13:18:17;;;;;;;31.52;20.38;;;6.20;99.90;;;;;;5050056;28;20040;-57
2022/01/15 13:21:04;;;;;;;45.65;26.83;;;6.30;99.90;;;;;;5042779;28;20044;-53
2022/01/15 13:23:53;;;;;;;36.42;21.60;;;6.30;99.90;;;;;;5046144;28;20048;-50
2022/01/15 13:26:46;;;;;;;32.85;20.88;;;6.30;99.90;;;;;;5051297;28;20447;-54
2022/01/15 13:29:39;;;;;;;36.70;20.83;;;6.20;99.90;;;;;;5050798;28;20039;-51
2022/01/15 13:32:23;;;;;;;36.47;22.02;;;6.20;99.90;;;;;;5049559;28;20064;-55
2022/01/15 13:35:13;;;;;;;34.17;19.17;;;6.20;99.90;;;;;;5051041;28;20040;-54
2022/01/15 13:38:00;;;;;;;43.67;25.33;;;6.10;99.90;;;;;;5037580;28;20036;-53
2022/01/15 13:40:47;;;;;;;27.73;15.48;;;6.10;99.90;;;;;;5051880;28;20113;-58
2022/01/15 13:43:34;;;;;;;33.50;18.35;;;6.00;99.90;;;;;;5051615;28;20076;-53
2022/01/15 13:46:27;;;;;;;21.25;12.40;;;6.10;99.90;;;;;;5049872;28;20523;-55
2022/01/15 13:49:20;;;;;;;33.28;16.65;;;6.10;99.90;;;;;;5029157;28;20537;-51
2022/01/15 13:55:08;;;;;;;30.70;18.17;;;6.10;99.90;;;;;;5055337;28;20063;-50
2022/01/15 13:58:06;;;;;;;30.95;16.65;;;6.20;99.90;;;;;;5055343;28;20098;-50
2022/01/15 14:00:51;;;;;;;31.65;17.00;;;6.20;99.90;;;;;;5054998;28;20115;-52
2022/01/15 14:03:35;;;;;;;30.85;19.58;;;6.20;99.90;;;;;;5053380;28;20071;-54
2022/01/15 14:06:20;;;;;;;31.52;19.13;;;6.30;99.90;;;;;;5056048;28;20108;-54
2022/01/15 14:09:04;;;;;;;32.97;19.42;;;6.30;99.90;;;;;;5055781;28;20028;-55
2022/01/15 14:11:55;;;;;;;26.67;18.13;;;6.20;99.90;;;;;;5054923;28;20547;-51
2022/01/15 14:15:10;;;;;;;27.95;16.52;;;6.10;99.90;;;;;;5052605;28;20588;-55
2022/01/15 14:18:01;;;;;;;30.33;17.83;;;5.90;99.90;;;;;;5045769;28;20716;-52
2022/01/15 14:23:41;;;;;;;19.52;13.40;;;6.00;99.90;;;;;;5048060;28;20113;-54
2022/01/15 14:26:28;;;;;;;24.02;12.45;;;6.00;99.90;;;;;;5053162;28;20112;-54
2022/01/15 14:29:12;;;;;;;19.55;9.38;;;6.10;99.90;;;;;;5048079;28;20048;-53
2022/01/15 14:31:59;;;;;;;15.87;8.30;;;6.00;99.90;;;;;;5046136;28;20111;-52
2022/01/15 14:34:52;;;;;;;20.10;8.63;;;5.90;99.90;;;;;;5052313;28;20564;-52
2022/01/15 14:37:36;;;;;;;15.25;7.82;;;5.80;99.90;;;;;;5046053;28;20550;-50
2022/01/15 14:40:20;;;;;;;17.52;9.77;;;5.90;99.90;;;;;;5052512;28;20120;-53
2022/01/15 14:43:05;;;;;;;15.70;9.32;;;5.80;99.90;;;;;;5042360;28;20048;-58
2022/01/15 14:45:49;;;;;;;16.27;9.02;;;5.90;99.90;;;;;;5036118;28;20053;-56